createdAt,value
2017-08-10T00:00:54.986Z,11.70
2017-08-10T00:03:22.519Z,10.60
2017-08-10T00:05:50.809Z,12.10
2017-08-10T00:08:19.125Z,11.73
2017-08-10T00:10:46.641Z,12.00
2017-08-10T00:13:14.173Z,11.80
2017-08-10T00:15:41.697Z,11.87
2017-08-10T00:18:09.222Z,13.67
2017-08-10T00:20:36.776Z,12.37
2017-08-10T00:23:05.070Z,11.43
2017-08-10T00:25:32.597Z,12.10
2017-08-10T00:28:00.887Z,12.93
2017-08-10T00:30:29.174Z,13.83
2017-08-10T00:32:57.021Z,12.83
2017-08-10T00:35:25.317Z,12.90
2017-08-10T00:37:52.853Z,13.20
2017-08-10T00:40:21.146Z,12.77
2017-08-10T00:42:48.683Z,13.97
2017-08-10T00:45:17.003Z,14.13
2017-08-10T00:47:44.538Z,11.83
2017-08-10T00:50:12.066Z,13.20
2017-08-10T00:52:39.590Z,12.57
2017-08-10T00:55:07.117Z,14.70
2017-08-10T00:57:34.909Z,13.73
2017-08-10T01:00:02.450Z,14.80
2017-08-10T01:02:29.973Z,14.40
2017-08-10T01:04:57.494Z,13.20
2017-08-10T01:07:25.022Z,14.03
2017-08-10T01:09:52.573Z,14.93
2017-08-10T01:12:20.097Z,13.70
2017-08-10T01:14:47.623Z,15.60
2017-08-10T01:17:15.149Z,14.63
2017-08-10T01:19:42.674Z,13.10
2017-08-10T01:22:10.198Z,13.63
2017-08-10T01:24:37.725Z,14.30
2017-08-10T01:27:05.251Z,12.93
2017-08-10T01:29:32.777Z,13.67
2017-08-10T01:32:00.305Z,13.90
2017-08-10T01:34:27.825Z,13.77
2017-08-10T01:36:55.377Z,14.37
2017-08-10T01:39:22.909Z,13.33
2017-08-10T01:41:50.433Z,14.40
2017-08-10T01:44:17.982Z,14.43
2017-08-10T01:46:46.269Z,14.57
2017-08-10T01:49:13.798Z,14.47
2017-08-10T01:51:41.349Z,15.30
2017-08-10T01:54:08.879Z,14.93
2017-08-10T01:56:36.422Z,16.43
2017-08-10T01:59:04.130Z,13.73
2017-08-10T02:01:31.658Z,14.30
2017-08-10T02:03:59.177Z,15.17
2017-08-10T02:06:26.725Z,14.67
2017-08-10T02:08:55.015Z,15.10
2017-08-10T02:11:22.546Z,15.17
2017-08-10T02:13:51.278Z,15.07
2017-08-10T02:16:18.802Z,14.67
2017-08-10T02:18:47.090Z,15.97
2017-08-10T02:21:14.650Z,17.13
2017-08-10T02:23:42.177Z,16.60
2017-08-10T02:26:09.705Z,15.40
2017-08-10T02:28:37.258Z,17.30
2017-08-10T02:31:04.792Z,17.17
2017-08-10T02:33:32.328Z,17.80
2017-08-10T02:36:00.645Z,17.77
2017-08-10T02:38:28.177Z,17.00
2017-08-10T02:40:55.710Z,16.83
2017-08-10T02:43:23.258Z,18.30
2017-08-10T02:45:50.782Z,17.47
2017-08-10T02:48:18.307Z,19.13
2017-08-10T02:50:45.828Z,18.43
2017-08-10T02:53:13.349Z,17.57
2017-08-10T02:55:40.897Z,19.10
2017-08-10T02:58:08.422Z,17.67
2017-08-10T03:00:36.708Z,19.67
2017-08-10T03:03:04.993Z,17.90
2017-08-10T03:05:32.518Z,16.47
2017-08-10T03:08:00.079Z,16.47
2017-08-10T03:10:27.602Z,17.33
2017-08-10T03:12:55.131Z,16.40
2017-08-10T03:15:22.658Z,17.93
2017-08-10T03:17:50.182Z,17.00
2017-08-10T03:20:17.729Z,17.40
2017-08-10T03:22:45.254Z,18.53
2017-08-10T03:25:13.541Z,16.67
2017-08-10T03:27:41.069Z,17.70
2017-08-10T03:30:08.598Z,18.20
2017-08-10T03:32:36.149Z,17.93
2017-08-10T03:35:03.674Z,18.50
2017-08-10T03:37:31.201Z,18.37
2017-08-10T03:39:58.777Z,18.70
2017-08-10T03:42:27.065Z,17.30
2017-08-10T03:44:54.626Z,18.93
2017-08-10T03:47:22.154Z,19.93
2017-08-10T03:49:49.677Z,19.23
2017-08-10T03:52:17.202Z,19.00
2017-08-10T03:54:44.725Z,19.80
2017-08-10T03:57:12.282Z,20.20
2017-08-10T03:59:39.813Z,19.20
2017-08-10T04:02:07.334Z,19.50
2017-08-10T04:04:34.861Z,19.60
2017-08-10T04:07:02.381Z,19.17
2017-08-10T04:09:29.937Z,19.70
2017-08-10T04:11:57.462Z,20.20
2017-08-10T04:14:24.989Z,20.00
2017-08-10T04:16:52.510Z,20.33
2017-08-10T04:19:20.042Z,19.83
2017-08-10T04:21:47.590Z,20.40
2017-08-10T04:24:15.885Z,20.17
2017-08-10T04:26:43.409Z,22.20
2017-08-10T04:29:11.702Z,20.57
2017-08-10T04:31:39.230Z,20.63
2017-08-10T04:34:07.165Z,22.73
2017-08-10T04:36:34.694Z,21.90
2017-08-10T04:39:02.228Z,21.07
2017-08-10T04:41:30.517Z,21.80
2017-08-10T04:43:58.808Z,22.60
2017-08-10T04:46:26.362Z,21.20
2017-08-10T04:48:53.885Z,20.50
2017-08-10T04:51:21.409Z,21.87
2017-08-10T04:53:48.937Z,22.70
2017-08-10T04:56:16.462Z,21.63
2017-08-10T04:58:44.018Z,21.97
2017-08-10T05:01:11.541Z,25.93
2017-08-10T05:03:39.065Z,22.13
2017-08-10T05:06:06.590Z,25.30
2017-08-10T05:08:34.114Z,23.10
2017-08-10T05:11:01.662Z,23.70
2017-08-10T05:13:29.185Z,23.20
2017-08-10T05:16:04.782Z,24.10
2017-08-10T05:18:33.217Z,22.40
2017-08-10T05:21:01.505Z,24.63
2017-08-10T05:23:29.088Z,61.10
2017-08-10T05:25:56.613Z,45.07
2017-08-10T05:28:26.582Z,28.27
2017-08-10T05:30:56.957Z,24.23
2017-08-10T05:33:24.486Z,28.70
2017-08-10T05:35:52.005Z,25.93
2017-08-10T05:38:19.533Z,26.40
2017-08-10T05:40:47.097Z,25.37
2017-08-10T05:43:14.637Z,28.90
2017-08-10T05:45:43.015Z,37.30
2017-08-10T05:48:11.402Z,32.10
2017-08-10T05:50:39.689Z,30.07
2017-08-10T05:53:07.237Z,30.00
2017-08-10T05:55:35.643Z,36.90
2017-08-10T05:58:03.169Z,36.27
2017-08-10T06:00:31.461Z,32.13
2017-08-10T06:02:58.986Z,23.77
2017-08-10T06:05:26.542Z,45.93
2017-08-10T06:07:54.077Z,58.73
2017-08-10T06:10:21.809Z,44.53
2017-08-10T06:12:49.565Z,65.73
2017-08-10T06:15:17.090Z,45.87
2017-08-10T06:17:44.649Z,41.80
2017-08-10T06:20:12.365Z,78.03
2017-08-10T06:22:40.005Z,86.80
2017-08-10T06:25:07.533Z,39.20
2017-08-10T06:27:35.058Z,31.50
2017-08-10T06:30:02.643Z,37.57
2017-08-10T06:32:32.415Z,57.90
2017-08-10T06:35:01.384Z,29.03
2017-08-10T06:37:29.057Z,20.00
2017-08-10T06:39:56.585Z,19.33
2017-08-10T06:42:25.512Z,18.07
2017-08-10T06:44:53.461Z,16.43
2017-08-10T06:47:21.462Z,16.33
2017-08-10T06:49:49.308Z,15.23
2017-08-10T06:52:16.837Z,19.00
2017-08-10T06:54:45.129Z,15.50
2017-08-10T06:57:12.654Z,16.13
2017-08-10T06:59:40.206Z,14.47
2017-08-10T07:02:07.936Z,16.60
2017-08-10T07:04:35.639Z,15.10
2017-08-10T07:07:04.161Z,18.23
2017-08-10T07:09:31.826Z,16.57
2017-08-10T07:11:59.385Z,15.53
2017-08-10T07:14:27.049Z,15.30
2017-08-10T07:16:54.570Z,15.57
2017-08-10T07:19:22.871Z,15.03
2017-08-10T07:21:51.007Z,14.33
2017-08-10T07:24:18.565Z,14.47
2017-08-10T07:26:46.407Z,13.30
2017-08-10T07:29:13.938Z,13.00
2017-08-10T07:31:41.959Z,12.43
2017-08-10T07:34:10.037Z,10.90
2017-08-10T07:36:38.356Z,10.43
2017-08-10T07:39:05.886Z,12.33
2017-08-10T07:41:34.178Z,11.00
2017-08-10T07:44:01.837Z,11.97
2017-08-10T07:46:29.361Z,12.13
2017-08-10T07:48:56.913Z,11.60
2017-08-10T07:51:24.453Z,12.93
2017-08-10T07:53:51.981Z,12.57
2017-08-10T07:56:19.506Z,12.93
2017-08-10T07:58:47.034Z,12.77
2017-08-10T08:01:14.590Z,12.23
2017-08-10T08:03:42.342Z,13.83
2017-08-10T08:06:09.873Z,14.27
2017-08-10T08:08:37.403Z,13.57
2017-08-10T08:11:04.925Z,13.97
2017-08-10T08:13:32.486Z,14.67
2017-08-10T08:16:00.009Z,14.67
2017-08-10T08:18:27.538Z,15.73
2017-08-10T08:20:55.063Z,21.13
2017-08-10T08:23:22.596Z,21.10
2017-08-10T08:25:50.142Z,21.83
2017-08-10T08:28:17.665Z,21.27
2017-08-10T08:30:45.186Z,20.30
2017-08-10T08:33:12.715Z,21.10
2017-08-10T08:35:40.245Z,19.40
2017-08-10T08:38:07.801Z,16.37
2017-08-10T08:40:35.339Z,16.93
2017-08-10T08:43:02.868Z,17.67
2017-08-10T08:45:30.389Z,16.60
2017-08-10T08:47:58.689Z,15.80
2017-08-10T08:50:26.246Z,15.77
2017-08-10T08:52:53.774Z,14.30
2017-08-10T08:55:21.310Z,14.73
2017-08-10T08:57:48.841Z,14.67
2017-08-10T09:00:16.365Z,15.00
2017-08-10T09:02:44.682Z,16.23
2017-08-10T09:05:12.201Z,14.93
2017-08-10T09:07:40.495Z,16.00
2017-08-10T09:10:08.017Z,15.03
2017-08-10T09:12:35.538Z,17.50
2017-08-10T09:15:03.094Z,15.27
2017-08-10T09:17:30.634Z,16.20
2017-08-10T09:19:58.165Z,15.90
2017-08-10T09:22:26.453Z,17.43
2017-08-10T09:24:53.977Z,18.77
2017-08-10T09:27:21.537Z,16.40
2017-08-10T09:29:49.061Z,18.10
2017-08-10T09:32:16.602Z,18.47
2017-08-10T09:34:44.126Z,18.30
2017-08-10T09:37:12.426Z,19.97
2017-08-10T09:39:39.986Z,18.73
2017-08-10T09:42:07.528Z,18.60
2017-08-10T09:44:35.826Z,20.60
2017-08-10T09:47:03.357Z,19.20
2017-08-10T09:49:31.665Z,18.63
2017-08-10T09:51:59.218Z,18.70
2017-08-10T09:54:26.741Z,17.50
2017-08-10T09:56:54.266Z,17.97
2017-08-10T09:59:21.790Z,17.20
2017-08-10T10:01:49.322Z,17.37
2017-08-10T10:04:17.669Z,16.47
2017-08-10T10:06:45.194Z,20.10
2017-08-10T10:09:12.710Z,18.33
2017-08-10T10:11:40.244Z,17.93
2017-08-10T10:14:07.765Z,18.17
2017-08-10T10:16:35.333Z,18.20
2017-08-10T10:19:02.853Z,17.30
2017-08-10T10:21:31.142Z,16.57
2017-08-10T10:23:58.670Z,16.70
2017-08-10T10:26:26.202Z,15.77
2017-08-10T10:28:53.765Z,17.43
2017-08-10T10:31:21.290Z,16.47
2017-08-10T10:33:48.822Z,15.23
2017-08-10T10:36:17.114Z,15.90
2017-08-10T10:38:44.638Z,14.87
2017-08-10T10:41:12.182Z,12.93
2017-08-10T10:43:39.716Z,13.93
2017-08-10T10:46:07.353Z,12.60
2017-08-10T10:48:34.878Z,13.27
2017-08-10T10:51:02.406Z,13.93
2017-08-10T10:53:29.958Z,13.87
2017-08-10T10:55:57.477Z,13.10
2017-08-10T10:58:25.761Z,12.93
2017-08-10T11:00:53.285Z,12.70
2017-08-10T11:03:20.810Z,13.43
2017-08-10T11:05:48.367Z,12.80
2017-08-10T11:08:16.613Z,13.00
2017-08-10T11:10:44.152Z,11.57
2017-08-10T11:13:12.449Z,11.90
2017-08-10T11:15:39.973Z,12.30
2017-08-10T11:18:07.998Z,11.23
2017-08-10T11:20:35.521Z,9.40
2017-08-10T11:23:03.814Z,10.10
2017-08-10T11:25:31.343Z,10.20
2017-08-10T11:27:58.866Z,9.43
2017-08-10T11:30:26.422Z,9.37
2017-08-10T11:32:53.941Z,9.87
2017-08-10T11:35:22.218Z,8.87
2017-08-10T11:37:50.504Z,9.80
2017-08-10T11:40:18.029Z,10.00
2017-08-10T11:42:45.590Z,10.27
2017-08-10T11:45:13.114Z,9.93
2017-08-10T11:47:40.644Z,9.23
2017-08-10T11:50:08.164Z,9.17
2017-08-10T11:52:36.453Z,9.40
2017-08-10T11:55:04.777Z,10.00
2017-08-10T11:57:32.297Z,9.33
2017-08-10T12:00:00.585Z,9.57
2017-08-10T12:02:28.105Z,9.43
2017-08-10T12:04:55.625Z,8.53
2017-08-10T12:07:26.454Z,9.97
2017-08-10T12:09:54.216Z,9.50
2017-08-10T12:12:22.189Z,9.60
2017-08-10T12:14:50.146Z,9.80
2017-08-10T12:17:18.119Z,10.73
2017-08-10T12:19:45.862Z,8.97
2017-08-10T12:22:13.385Z,11.10
2017-08-10T12:24:40.921Z,11.37
2017-08-10T12:27:08.445Z,12.97
2017-08-10T12:29:35.974Z,11.53
2017-08-10T12:32:04.496Z,13.67
2017-08-10T12:34:32.240Z,14.30
2017-08-10T12:37:01.206Z,14.20
2017-08-10T12:39:28.974Z,12.20
2017-08-10T12:41:57.872Z,13.00
2017-08-10T12:44:25.962Z,14.10
2017-08-10T12:46:53.930Z,13.97
2017-08-10T12:49:21.458Z,13.90
2017-08-10T12:51:49.757Z,13.20
2017-08-10T12:54:18.045Z,12.20
2017-08-10T12:56:45.598Z,12.70
2017-08-10T12:59:13.122Z,11.67
2017-08-10T13:01:41.014Z,11.90
2017-08-10T13:04:09.306Z,11.17
2017-08-10T13:06:36.834Z,10.80
2017-08-10T13:09:05.411Z,11.13
2017-08-10T13:11:33.238Z,10.37
2017-08-10T13:14:01.059Z,10.13
2017-08-10T13:16:29.613Z,10.70
2017-08-10T13:18:57.461Z,10.70
2017-08-10T13:21:25.005Z,9.50
2017-08-10T13:23:54.178Z,9.10
2017-08-10T13:26:21.928Z,10.17
2017-08-10T13:28:49.763Z,10.10
2017-08-10T13:31:17.470Z,10.10
2017-08-10T13:33:45.601Z,9.57
2017-08-10T13:36:13.290Z,9.90
2017-08-10T13:38:48.448Z,10.47
2017-08-10T13:41:16.944Z,9.10
2017-08-10T13:43:44.489Z,8.83
2017-08-10T13:46:12.010Z,8.10
2017-08-10T13:48:39.530Z,8.83
2017-08-10T13:51:07.049Z,8.40
2017-08-10T13:53:35.338Z,8.57
2017-08-10T13:56:02.886Z,8.37
2017-08-10T13:58:30.409Z,9.07
2017-08-10T14:00:57.921Z,8.30
2017-08-10T14:03:25.442Z,7.70
2017-08-10T14:05:53.730Z,8.63
2017-08-10T14:08:22.046Z,7.70
2017-08-10T14:10:49.565Z,7.97
2017-08-10T14:13:17.855Z,7.20
2017-08-10T14:15:45.386Z,11.32
2017-08-10T14:18:13.673Z,10.85
2017-08-10T14:20:41.986Z,7.90
2017-08-10T14:23:09.513Z,9.25
2017-08-10T14:25:37.802Z,13.40
2017-08-10T14:28:05.329Z,10.95
2017-08-10T14:30:32.846Z,7.53
2017-08-10T14:33:00.393Z,9.07
2017-08-10T14:35:27.930Z,12.73
2017-08-10T14:37:55.458Z,8.68
2017-08-10T14:40:22.978Z,6.72
2017-08-10T14:42:50.559Z,7.62
2017-08-10T14:45:18.105Z,8.18
2017-08-10T14:47:45.720Z,8.80
2017-08-10T14:50:14.001Z,7.30
2017-08-10T14:52:41.526Z,6.65
2017-08-10T14:55:09.042Z,5.93
2017-08-10T14:57:36.589Z,6.90
2017-08-10T15:00:04.165Z,6.47
2017-08-10T15:02:31.715Z,7.40
2017-08-10T15:04:59.246Z,7.18
2017-08-10T15:07:27.533Z,6.10
2017-08-10T15:09:55.091Z,6.72
2017-08-10T15:12:22.611Z,6.40
2017-08-10T15:14:50.131Z,5.22
2017-08-10T15:17:17.657Z,7.40
2017-08-10T15:19:45.948Z,7.30
2017-08-10T15:22:13.489Z,6.00
2017-08-10T15:24:41.777Z,5.68
2017-08-10T15:27:09.297Z,5.78
2017-08-10T15:29:36.814Z,5.85
2017-08-10T15:32:04.334Z,5.60
2017-08-10T15:34:32.759Z,5.72
2017-08-10T15:37:00.322Z,7.57
2017-08-10T15:39:27.847Z,6.62
2017-08-10T15:41:55.514Z,6.78
2017-08-10T15:44:23.055Z,7.10
2017-08-10T15:46:51.378Z,6.30
2017-08-10T15:49:19.032Z,8.02
2017-08-10T15:51:46.575Z,5.72
2017-08-10T15:54:14.380Z,7.05
2017-08-10T15:56:42.694Z,7.07
2017-08-10T15:59:11.531Z,9.43
2017-08-10T16:01:43.143Z,8.70
2017-08-10T16:04:11.759Z,6.30
2017-08-10T16:06:40.763Z,7.25
2017-08-10T16:09:09.155Z,11.47
2017-08-10T16:11:36.683Z,11.27
2017-08-10T16:14:04.223Z,9.70
2017-08-10T16:16:32.012Z,7.40
2017-08-10T16:19:17.030Z,10.10
2017-08-10T16:21:45.601Z,10.70
2017-08-10T16:24:14.501Z,9.57
2017-08-10T16:26:42.027Z,7.60
2017-08-10T16:29:09.552Z,7.80
2017-08-10T16:31:37.090Z,8.50
2017-08-10T16:34:05.403Z,9.63
2017-08-10T16:36:32.937Z,17.60
2017-08-10T16:39:00.463Z,10.73
2017-08-10T16:41:27.987Z,12.90
2017-08-10T16:43:55.501Z,7.70
2017-08-10T16:46:23.806Z,8.03
2017-08-10T16:48:51.434Z,8.10
2017-08-10T16:51:19.731Z,8.00
2017-08-10T16:53:47.256Z,8.30
2017-08-10T16:56:14.774Z,8.83
2017-08-10T16:58:42.324Z,8.33
2017-08-10T17:01:09.846Z,9.20
2017-08-10T17:03:38.138Z,9.30
2017-08-10T17:06:05.661Z,9.63
2017-08-10T17:08:33.181Z,9.07
2017-08-10T17:11:00.732Z,9.57
2017-08-10T17:13:28.266Z,10.50
2017-08-10T17:15:56.557Z,10.50
2017-08-10T17:18:24.089Z,11.90
2017-08-10T17:20:52.387Z,10.80
2017-08-10T17:23:19.934Z,9.33
2017-08-10T17:25:48.213Z,9.10
2017-08-10T17:28:15.737Z,11.80
2017-08-10T17:30:43.257Z,8.40
2017-08-10T17:33:10.774Z,9.17
2017-08-10T17:35:39.081Z,9.33
2017-08-10T17:38:06.614Z,9.40
2017-08-10T17:40:34.153Z,8.53
2017-08-10T17:43:01.666Z,8.50
2017-08-10T17:45:29.194Z,9.50
2017-08-10T17:47:57.501Z,9.67
2017-08-10T17:50:25.022Z,9.17
2017-08-10T17:52:53.310Z,10.07
2017-08-10T17:55:20.843Z,10.60
2017-08-10T17:57:48.365Z,9.97
2017-08-10T18:00:15.918Z,9.53
2017-08-10T18:02:43.446Z,9.60
2017-08-10T18:05:10.970Z,10.17
2017-08-10T18:07:38.502Z,10.97
2017-08-10T18:10:06.027Z,11.53
2017-08-10T18:12:33.581Z,10.77
2017-08-10T18:15:01.123Z,9.73
2017-08-10T18:17:29.429Z,10.10
2017-08-10T18:19:56.954Z,11.17
2017-08-10T18:22:25.253Z,11.57
2017-08-10T18:24:52.806Z,26.40
2017-08-10T18:27:20.337Z,11.63
2017-08-10T18:29:47.865Z,12.93
2017-08-10T18:32:15.387Z,11.70
2017-08-10T18:34:42.909Z,9.87
2017-08-10T18:37:10.457Z,11.30
2017-08-10T18:39:37.982Z,11.50
2017-08-10T18:42:05.506Z,12.40
2017-08-10T18:44:33.794Z,10.70
2017-08-10T18:47:01.322Z,14.33
2017-08-10T18:49:28.878Z,10.93
2017-08-10T18:51:56.405Z,13.37
2017-08-10T18:54:23.937Z,15.13
2017-08-10T18:56:51.466Z,11.60
2017-08-10T18:59:19.765Z,12.20
2017-08-10T19:01:47.314Z,14.83
2017-08-10T19:04:15.601Z,11.20
2017-08-10T19:06:43.125Z,11.17
2017-08-10T19:09:10.658Z,11.60
2017-08-10T19:11:38.182Z,13.40
2017-08-10T19:14:05.733Z,10.37
2017-08-10T19:16:33.277Z,13.53
2017-08-10T19:19:01.566Z,12.03
2017-08-10T19:21:29.093Z,11.83
2017-08-10T19:23:57.378Z,12.63
2017-08-10T19:26:25.691Z,14.80
2017-08-10T19:28:53.209Z,23.27
2017-08-10T19:31:21.502Z,19.40
2017-08-10T19:33:49.790Z,18.90
2017-08-10T19:36:17.317Z,23.77
2017-08-10T19:38:44.869Z,27.00
2017-08-10T19:41:12.398Z,22.03
2017-08-10T19:43:39.923Z,19.30
2017-08-10T19:46:07.442Z,20.50
2017-08-10T19:48:34.965Z,14.93
2017-08-10T19:51:02.514Z,14.47
2017-08-10T19:53:30.042Z,16.67
2017-08-10T19:55:58.337Z,12.30
2017-08-10T19:58:25.858Z,12.53
2017-08-10T20:00:53.380Z,11.80
2017-08-10T20:03:20.940Z,11.30
2017-08-10T20:05:48.466Z,11.80
2017-08-10T20:08:15.997Z,12.00
2017-08-10T20:10:44.294Z,11.83
2017-08-10T20:13:12.581Z,11.47
2017-08-10T20:15:40.134Z,10.10
2017-08-10T20:18:07.693Z,11.77
2017-08-10T20:20:35.226Z,15.57
2017-08-10T20:23:02.749Z,15.53
2017-08-10T20:25:30.277Z,14.97
2017-08-10T20:27:57.825Z,12.10
2017-08-10T20:30:25.345Z,12.13
2017-08-10T20:32:52.913Z,12.03
2017-08-10T20:35:20.438Z,12.37
2017-08-10T20:37:47.962Z,11.50
2017-08-10T20:40:15.530Z,12.10
2017-08-10T20:42:43.055Z,12.53
2017-08-10T20:45:11.345Z,13.70
2017-08-10T20:47:39.637Z,11.03
2017-08-10T20:50:07.174Z,14.43
2017-08-10T20:52:35.489Z,17.57
2017-08-10T20:55:03.010Z,23.60
2017-08-10T20:57:31.357Z,26.37
2017-08-10T20:59:58.878Z,23.77
2017-08-10T21:02:26.417Z,22.20
2017-08-10T21:04:53.965Z,27.70
2017-08-10T21:07:22.254Z,20.33
2017-08-10T21:09:49.781Z,16.73
2017-08-10T21:12:17.307Z,25.50
2017-08-10T21:14:44.833Z,25.47
2017-08-10T21:17:12.381Z,17.60
2017-08-10T21:19:39.913Z,16.10
2017-08-10T21:22:07.438Z,14.57
2017-08-10T21:24:34.962Z,26.03
2017-08-10T21:27:02.489Z,21.10
2017-08-10T21:29:30.046Z,28.03
2017-08-10T21:31:57.581Z,28.00
2017-08-10T21:34:25.101Z,24.60
2017-08-10T21:36:52.635Z,25.67
2017-08-10T21:39:21.098Z,20.60
2017-08-10T21:41:48.648Z,22.50
2017-08-10T21:44:16.172Z,25.37
2017-08-10T21:46:43.698Z,20.70
2017-08-10T21:49:11.989Z,19.60
2017-08-10T21:51:39.513Z,24.30
2017-08-10T21:54:07.066Z,24.97
2017-08-10T21:56:34.590Z,19.90
2017-08-10T21:59:02.109Z,24.20
2017-08-10T22:01:30.401Z,21.50
2017-08-10T22:03:57.928Z,18.97
2017-08-10T22:06:26.263Z,19.97
2017-08-10T22:08:53.790Z,24.73
2017-08-10T22:11:21.318Z,22.10
2017-08-10T22:13:48.837Z,20.33
2017-08-10T22:16:16.369Z,17.30
2017-08-10T22:18:43.921Z,22.53
2017-08-10T22:21:11.450Z,18.20
2017-08-10T22:23:38.973Z,15.37
2017-08-10T22:26:06.501Z,18.33
2017-08-10T22:28:34.026Z,14.70
2017-08-10T22:31:01.579Z,15.10
2017-08-10T22:33:29.118Z,15.17
2017-08-10T22:35:56.641Z,14.53
2017-08-10T22:38:24.233Z,15.77
2017-08-10T22:40:51.761Z,14.20
2017-08-10T22:43:19.310Z,15.47
2017-08-10T22:45:46.842Z,15.20
2017-08-10T22:48:15.133Z,15.57
2017-08-10T22:50:43.423Z,18.30
2017-08-10T22:53:10.949Z,19.30
2017-08-10T22:55:38.501Z,14.20
2017-08-10T22:58:06.023Z,15.50
2017-08-10T23:00:33.553Z,12.43
2017-08-10T23:03:01.074Z,16.30
2017-08-10T23:05:28.605Z,14.00
2017-08-10T23:07:56.153Z,13.57
2017-08-10T23:10:23.674Z,14.33
2017-08-10T23:12:51.961Z,14.07
2017-08-10T23:15:19.494Z,12.70
2017-08-10T23:17:47.783Z,11.43
2017-08-10T23:20:16.102Z,12.50
2017-08-10T23:22:43.634Z,12.00
2017-08-10T23:25:11.154Z,11.73
2017-08-10T23:27:38.677Z,12.57
2017-08-10T23:30:06.205Z,12.80
2017-08-10T23:32:33.757Z,13.10
2017-08-10T23:35:01.333Z,12.17
2017-08-10T23:37:28.862Z,11.60
2017-08-10T23:39:57.153Z,11.53
2017-08-10T23:42:24.677Z,13.97
2017-08-10T23:44:52.233Z,12.23
2017-08-10T23:47:19.758Z,12.43
2017-08-10T23:49:47.274Z,8.13
2017-08-10T23:52:15.562Z,7.30
2017-08-10T23:54:43.077Z,7.00
2017-08-10T23:57:10.622Z,4.30
2017-08-10T23:59:38.138Z,3.40
